createdAt,value
2019-05-13T00:00:59.251Z,9.00
2019-05-13T00:03:30.606Z,8.90
2019-05-13T00:06:03.966Z,8.90
2019-05-13T00:08:34.983Z,9.00
2019-05-13T00:11:06.905Z,8.90
2019-05-13T00:13:38.205Z,8.90
2019-05-13T00:16:09.523Z,8.90
2019-05-13T00:18:40.808Z,8.90
2019-05-13T00:21:14.022Z,9.00
2019-05-13T00:23:45.135Z,9.00
2019-05-13T00:26:16.602Z,9.00
2019-05-13T00:28:47.920Z,9.00
2019-05-13T00:31:19.312Z,9.00
2019-05-13T00:33:50.575Z,9.00
2019-05-13T00:36:24.178Z,8.90
2019-05-13T00:38:54.844Z,8.90
2019-05-13T00:41:26.315Z,8.90
2019-05-13T00:43:57.597Z,8.90
2019-05-13T00:46:29.359Z,8.90
2019-05-13T00:49:00.646Z,8.80
2019-05-13T00:51:33.699Z,8.80
2019-05-13T00:54:05.010Z,8.80
2019-05-13T00:56:36.412Z,8.80
2019-05-13T00:59:08.249Z,8.80
2019-05-13T01:01:39.646Z,8.70
2019-05-13T01:04:10.906Z,8.70
2019-05-13T01:06:43.581Z,8.70
2019-05-13T01:09:15.278Z,8.70
2019-05-13T01:11:46.711Z,8.70
2019-05-13T01:14:17.989Z,8.60
2019-05-13T01:16:49.323Z,8.60
2019-05-13T01:19:23.534Z,8.60
2019-05-13T01:21:54.192Z,8.60
2019-05-13T01:24:25.574Z,8.60
2019-05-13T01:26:57.263Z,8.60
2019-05-13T01:29:28.636Z,8.60
2019-05-13T01:31:59.961Z,8.50
2019-05-13T01:34:33.935Z,8.50
2019-05-13T01:37:05.947Z,8.50
2019-05-13T01:39:37.223Z,8.50
2019-05-13T01:42:08.509Z,8.50
2019-05-13T01:44:39.803Z,8.40
2019-05-13T01:47:13.303Z,8.40
2019-05-13T01:49:44.148Z,8.40
2019-05-13T01:52:15.419Z,8.40
2019-05-13T01:54:47.006Z,8.40
2019-05-13T01:57:18.412Z,8.30
2019-05-13T01:59:49.838Z,8.20
2019-05-13T02:02:21.329Z,8.20
2019-05-13T02:04:53.244Z,8.20
2019-05-13T02:07:25.488Z,8.30
2019-05-13T02:09:57.416Z,8.20
2019-05-13T02:12:29.328Z,8.20
2019-05-13T02:15:00.730Z,8.20
2019-05-13T02:17:33.761Z,8.10
2019-05-13T02:20:05.617Z,8.10
2019-05-13T02:22:37.156Z,8.00
2019-05-13T02:25:08.766Z,8.10
2019-05-13T02:27:44.040Z,8.00
2019-05-13T02:30:16.706Z,8.00
2019-05-13T02:32:48.110Z,8.00
2019-05-13T02:35:22.990Z,8.00
2019-05-13T02:37:52.858Z,8.00
2019-05-13T02:40:24.517Z,8.10
2019-05-13T02:42:56.169Z,8.10
2019-05-13T02:45:27.534Z,8.10
2019-05-13T02:47:58.953Z,8.10
2019-05-13T02:50:33.533Z,8.00
2019-05-13T02:53:03.401Z,8.00
2019-05-13T02:55:34.666Z,8.00
2019-05-13T02:58:07.767Z,8.00
2019-05-13T03:00:39.010Z,8.00
2019-05-13T03:03:12.889Z,8.00
2019-05-13T03:05:43.576Z,8.00
2019-05-13T03:08:34.018Z,8.00
2019-05-13T03:10:48.402Z,8.00
2019-05-13T03:13:22.962Z,8.00
2019-05-13T03:16:03.319Z,8.00
2019-05-13T03:18:34.885Z,8.00
2019-05-13T03:21:06.173Z,8.00
2019-05-13T03:23:37.607Z,8.00
2019-05-13T03:26:08.895Z,8.00
2019-05-13T03:28:43.193Z,8.00
2019-05-13T03:31:17.474Z,8.00
2019-05-13T03:33:47.757Z,8.00
2019-05-13T03:36:25.258Z,8.00
2019-05-13T03:39:05.157Z,8.00
2019-05-13T03:41:28.381Z,8.00
2019-05-13T03:44:04.074Z,8.00
2019-05-13T03:46:38.626Z,8.00
2019-05-13T03:49:13.751Z,8.00
2019-05-13T03:51:45.868Z,8.00
2019-05-13T03:54:17.521Z,8.00
2019-05-13T03:56:52.802Z,8.00
2019-05-13T03:59:22.728Z,8.00
2019-05-13T04:01:54.465Z,8.00
2019-05-13T04:04:26.069Z,7.90
2019-05-13T04:06:57.668Z,8.00
2019-05-13T04:09:32.545Z,8.10
2019-05-13T04:12:03.566Z,8.00
2019-05-13T04:14:35.131Z,8.00
2019-05-13T04:17:06.616Z,8.10
2019-05-13T04:19:38.121Z,8.10
2019-05-13T04:22:12.594Z,8.20
2019-05-13T04:24:42.891Z,8.20
2019-05-13T04:27:14.904Z,8.10
2019-05-13T04:29:47.145Z,8.10
2019-05-13T04:32:18.522Z,8.10
2019-05-13T04:34:52.664Z,8.20
2019-05-13T04:37:22.846Z,8.30
2019-05-13T04:39:56.459Z,8.30
2019-05-13T04:42:27.871Z,8.30
2019-05-13T04:45:02.632Z,8.40
2019-05-13T04:47:33.431Z,8.40
2019-05-13T04:50:05.374Z,8.40
2019-05-13T04:52:36.755Z,8.60
2019-05-13T04:55:08.510Z,8.70
2019-05-13T04:57:42.418Z,8.70
2019-05-13T05:00:13.571Z,8.60
2019-05-13T05:03:32.635Z,8.60
2019-05-13T05:06:17.877Z,8.60
2019-05-13T05:09:12.573Z,8.60
2019-05-13T05:12:46.658Z,8.60
2019-05-13T05:15:54.772Z,8.60
2019-05-13T05:19:12.194Z,8.60
2019-05-13T05:22:05.421Z,8.70
2019-05-13T05:24:53.344Z,8.80
2019-05-13T05:28:02.182Z,8.80
2019-05-13T05:31:15.814Z,8.90
2019-05-13T05:34:12.528Z,8.80
2019-05-13T05:37:06.137Z,8.90
2019-05-13T05:39:41.899Z,8.90
2019-05-13T05:42:15.976Z,9.00
2019-05-13T05:44:51.843Z,9.10
2019-05-13T05:47:25.108Z,9.10
2019-05-13T05:49:57.416Z,8.90
2019-05-13T05:52:31.604Z,8.70
2019-05-13T05:55:03.967Z,8.70
2019-05-13T05:57:37.115Z,8.70
2019-05-13T06:00:11.365Z,8.90
2019-05-13T06:02:44.615Z,8.90
2019-05-13T06:05:16.209Z,8.90
2019-05-13T06:07:47.654Z,9.00
2019-05-13T06:10:19.519Z,9.10
2019-05-13T06:12:52.265Z,9.00
2019-05-13T06:15:24.137Z,9.00
2019-05-13T06:17:55.711Z,8.90
2019-05-13T06:20:27.055Z,9.10
2019-05-13T06:22:58.583Z,9.20
2019-05-13T06:25:33.636Z,9.20
2019-05-13T06:28:03.500Z,9.20
2019-05-13T06:30:35.388Z,9.20
2019-05-13T06:33:06.939Z,9.10
2019-05-13T06:35:41.708Z,9.20
2019-05-13T06:38:11.914Z,9.20
2019-05-13T06:40:59.040Z,9.20
2019-05-13T06:43:17.505Z,9.40
2019-05-13T06:45:51.241Z,9.40
2019-05-13T06:48:23.139Z,9.30
2019-05-13T06:50:54.642Z,9.30
2019-05-13T06:53:25.988Z,9.50
2019-05-13T06:55:57.320Z,9.40
2019-05-13T06:58:28.814Z,9.40
2019-05-13T07:01:03.155Z,9.40
2019-05-13T07:03:33.244Z,9.30
2019-05-13T07:06:04.733Z,9.30
2019-05-13T07:08:36.533Z,9.30
2019-05-13T07:11:18.495Z,9.40
2019-05-13T07:13:42.339Z,9.30
2019-05-13T07:16:13.750Z,9.30
2019-05-13T07:18:45.205Z,9.40
2019-05-13T07:21:16.606Z,9.50
2019-05-13T07:23:54.230Z,9.50
2019-05-13T07:26:22.615Z,9.50
2019-05-13T07:28:54.013Z,9.50
2019-05-13T07:31:25.355Z,9.60
2019-05-13T07:33:56.728Z,9.70
2019-05-13T07:36:28.130Z,9.90
2019-05-13T07:39:01.373Z,10.00
2019-05-13T07:41:39.073Z,9.90
2019-05-13T07:44:05.994Z,9.80
2019-05-13T07:46:37.274Z,9.80
2019-05-13T07:49:08.731Z,9.90
2019-05-13T07:51:42.031Z,9.90
2019-05-13T07:54:13.020Z,9.90
2019-05-13T07:56:44.280Z,10.00
2019-05-13T07:59:15.792Z,10.00
2019-05-13T08:01:47.058Z,9.90
2019-05-13T08:04:22.887Z,9.90
2019-05-13T08:06:52.372Z,9.90
2019-05-13T08:09:24.095Z,9.80
2019-05-13T08:12:05.220Z,9.80
2019-05-13T08:14:28.598Z,9.80
2019-05-13T08:17:02.295Z,9.90
2019-05-13T08:19:33.030Z,10.00
2019-05-13T08:22:04.424Z,10.00
2019-05-13T08:24:35.829Z,10.10
2019-05-13T08:27:07.232Z,10.20
2019-05-13T08:29:38.516Z,10.30
2019-05-13T08:32:11.276Z,10.40
2019-05-13T08:34:42.850Z,10.50
2019-05-13T08:37:14.218Z,10.50
2019-05-13T08:39:45.581Z,10.50
2019-05-13T08:42:20.047Z,10.50
2019-05-13T08:44:52.246Z,10.60
2019-05-13T08:47:22.810Z,10.60
2019-05-13T08:49:55.305Z,10.80
2019-05-13T08:58:53.709Z,10.80
2019-05-13T09:01:25.604Z,11.00
2019-05-13T09:03:58.001Z,11.20
2019-05-13T09:06:31.230Z,11.20
2019-05-13T09:09:04.290Z,11.20
2019-05-13T09:11:35.687Z,11.00
2019-05-13T09:14:07.515Z,11.10
2019-05-13T09:16:39.005Z,11.10
2019-05-13T09:19:15.773Z,11.20
2019-05-13T09:21:43.480Z,11.50
2019-05-13T09:24:24.527Z,11.60
2019-05-13T09:26:48.189Z,11.70
2019-05-13T09:29:19.535Z,11.90
2019-05-13T09:31:51.945Z,11.90
2019-05-13T09:34:23.698Z,12.00
2019-05-13T09:36:55.059Z,12.10
2019-05-13T09:39:26.510Z,12.20
2019-05-13T09:41:58.057Z,12.30
2019-05-13T09:44:29.377Z,12.30
2019-05-13T09:47:02.537Z,12.20
2019-05-13T09:49:33.702Z,12.10
2019-05-13T09:52:05.071Z,12.10
2019-05-13T09:54:36.527Z,12.10
2019-05-13T09:57:07.860Z,12.10
2019-05-13T09:59:39.232Z,12.30
2019-05-13T10:02:12.456Z,12.40
2019-05-13T10:04:44.193Z,12.30
2019-05-13T10:07:15.666Z,12.50
2019-05-13T10:09:48.617Z,12.70
2019-05-13T10:12:23.813Z,12.80
2019-05-13T10:14:53.274Z,12.80
2019-05-13T10:17:24.622Z,12.80
2019-05-13T10:19:56.123Z,12.70
2019-05-13T10:22:27.605Z,12.70
2019-05-13T10:25:02.593Z,12.80
2019-05-13T10:27:33.660Z,12.80
2019-05-13T10:30:05.640Z,12.70
2019-05-13T10:32:36.965Z,12.60
2019-05-13T10:35:08.515Z,12.60
2019-05-13T10:37:41.832Z,12.70
2019-05-13T10:40:14.741Z,12.70
2019-05-13T10:42:46.131Z,12.70
2019-05-13T10:45:18.186Z,12.70
2019-05-13T10:47:51.856Z,12.70
2019-05-13T10:50:27.509Z,12.70
2019-05-13T10:52:55.807Z,12.80
2019-05-13T10:55:27.264Z,12.60
2019-05-13T10:58:01.610Z,12.60
2019-05-13T11:00:51.736Z,12.50
2019-05-13T11:03:24.357Z,12.60
2019-05-13T11:05:55.834Z,12.60
2019-05-13T11:08:27.104Z,12.60
2019-05-13T11:10:58.989Z,12.70
2019-05-13T11:13:49.632Z,12.80
2019-05-13T11:16:03.531Z,12.80
2019-05-13T11:18:35.029Z,12.80
2019-05-13T11:21:06.647Z,12.90
2019-05-13T11:23:37.938Z,12.90
2019-05-13T11:26:09.398Z,12.80
2019-05-13T11:28:43.053Z,12.80
2019-05-13T11:31:14.682Z,12.60
2019-05-13T11:33:46.051Z,12.70
2019-05-13T11:36:19.109Z,12.60
2019-05-13T11:38:53.064Z,12.30
2019-05-13T11:41:23.405Z,12.30
2019-05-13T11:44:11.853Z,12.30
2019-05-13T11:46:27.745Z,12.40
2019-05-13T11:48:59.147Z,12.60
2019-05-13T11:51:31.968Z,12.70
2019-05-13T11:54:03.653Z,12.70
2019-05-13T11:56:35.273Z,12.70
2019-05-13T11:59:06.763Z,12.70
2019-05-13T12:01:38.151Z,12.60
2019-05-13T12:04:09.699Z,12.60
2019-05-13T12:06:48.636Z,12.70
2019-05-13T12:09:14.254Z,12.70
2019-05-13T12:11:45.697Z,12.90
2019-05-13T12:14:39.214Z,12.80
2019-05-13T12:16:50.084Z,12.80
2019-05-13T12:19:22.079Z,12.40
2019-05-13T12:21:54.340Z,12.30
2019-05-13T12:24:25.735Z,12.30
2019-05-13T12:26:57.112Z,12.40
2019-05-13T12:29:28.550Z,12.50
2019-05-13T12:32:02.978Z,12.60
2019-05-13T12:34:40.453Z,12.50
2019-05-13T12:37:07.583Z,12.50
2019-05-13T12:39:39.078Z,12.60
2019-05-13T12:42:12.649Z,12.60
2019-05-13T12:45:00.244Z,12.50
2019-05-13T12:47:16.650Z,12.60
2019-05-13T12:49:48.081Z,12.50
2019-05-13T12:52:22.170Z,12.50
2019-05-13T12:54:53.079Z,12.50
2019-05-13T12:57:24.849Z,12.30
2019-05-13T12:59:56.357Z,12.40
2019-05-13T13:02:27.789Z,12.50
2019-05-13T13:05:10.723Z,12.60
2019-05-13T13:07:41.010Z,12.40
2019-05-13T13:10:07.443Z,12.20
2019-05-13T13:12:41.933Z,12.30
2019-05-13T13:15:32.882Z,12.20
2019-05-13T13:17:45.314Z,12.30
2019-05-13T13:20:17.093Z,12.20
2019-05-13T13:22:48.682Z,12.30
2019-05-13T13:25:23.777Z,12.30
2019-05-13T13:28:10.455Z,12.30
2019-05-13T13:30:26.766Z,12.10
2019-05-13T13:32:58.205Z,11.80
2019-05-13T13:35:32.949Z,11.70
2019-05-13T13:38:04.255Z,11.60
2019-05-13T13:40:36.183Z,11.70
2019-05-13T13:43:07.699Z,11.70
2019-05-13T13:46:05.777Z,11.70
2019-05-13T13:48:13.535Z,11.70
2019-05-13T13:50:45.765Z,11.80
2019-05-13T13:53:17.336Z,12.00
2019-05-13T13:55:48.912Z,12.10
2019-05-13T13:58:25.570Z,12.10
2019-05-13T14:01:05.681Z,12.00
2019-05-13T14:03:26.692Z,12.00
2019-05-13T14:05:58.163Z,11.90
2019-05-13T14:08:29.957Z,11.90
2019-05-13T14:11:02.068Z,12.00
2019-05-13T14:13:33.608Z,12.00
2019-05-13T14:16:05.388Z,12.10
2019-05-13T14:18:38.181Z,12.20
2019-05-13T14:21:09.777Z,12.10
2019-05-13T14:23:42.549Z,12.00
2019-05-13T14:26:14.545Z,11.90
2019-05-13T14:28:46.032Z,11.90
2019-05-13T14:31:17.527Z,11.80
2019-05-13T14:33:48.869Z,11.80
2019-05-13T14:36:23.262Z,11.90
2019-05-13T14:38:54.820Z,11.90
2019-05-13T14:41:26.260Z,11.90
2019-05-13T14:43:57.709Z,11.90
2019-05-13T14:46:44.036Z,11.80
2019-05-13T14:49:02.318Z,11.70
2019-05-13T14:51:33.799Z,11.80
2019-05-13T14:54:05.413Z,11.70
2019-05-13T14:56:37.120Z,11.70
2019-05-13T14:59:08.569Z,11.70
2019-05-13T15:01:41.320Z,11.60
2019-05-13T15:04:13.481Z,11.60
2019-05-13T15:06:45.150Z,11.60
2019-05-13T15:09:16.717Z,11.60
2019-05-13T15:11:48.669Z,11.50
2019-05-13T15:14:21.980Z,11.60
2019-05-13T15:17:31.529Z,11.50
2019-05-13T15:19:26.244Z,11.50
2019-05-13T15:21:58.211Z,11.60
2019-05-13T15:24:32.335Z,11.60
2019-05-13T15:27:02.971Z,11.60
2019-05-13T15:29:34.410Z,11.50
2019-05-13T15:32:06.116Z,11.40
2019-05-13T15:34:37.634Z,11.40
2019-05-13T15:37:10.683Z,11.40
2019-05-13T15:39:42.575Z,11.40
2019-05-13T15:42:14.378Z,11.40
2019-05-13T15:44:45.914Z,11.40
2019-05-13T15:47:23.338Z,11.30
2019-05-13T15:49:51.311Z,11.30
2019-05-13T15:52:22.855Z,11.30
2019-05-13T15:54:54.393Z,11.30
2019-05-13T15:57:26.003Z,11.10
2019-05-13T15:59:57.550Z,11.00
2019-05-13T16:02:31.232Z,11.00
2019-05-13T16:05:04.854Z,11.00
2019-05-13T16:07:35.269Z,10.90
2019-05-13T16:10:07.539Z,10.80
2019-05-13T16:12:39.196Z,10.70
2019-05-13T16:15:15.514Z,10.70
2019-05-13T16:17:45.080Z,10.60
2019-05-13T16:20:17.737Z,10.50
2019-05-13T16:22:49.187Z,10.40
2019-05-13T16:25:20.837Z,10.50
2019-05-13T16:27:52.334Z,10.40
2019-05-13T16:30:24.928Z,10.30
2019-05-13T16:32:56.298Z,10.30
2019-05-13T16:35:27.707Z,10.40
2019-05-13T16:38:01.755Z,10.20
2019-05-13T16:40:36.695Z,10.20
2019-05-13T16:43:07.287Z,10.00
2019-05-13T16:45:38.908Z,10.00
2019-05-13T16:48:12.357Z,10.00
2019-05-13T16:50:44.324Z,10.00
2019-05-13T16:53:15.681Z,9.90
2019-05-13T16:55:47.133Z,9.90
2019-05-13T16:58:18.596Z,9.90
2019-05-13T17:00:52.069Z,9.90
2019-05-13T17:03:23.111Z,9.90
2019-05-13T17:05:54.496Z,9.90
2019-05-13T17:08:25.972Z,9.70
2019-05-13T17:10:57.449Z,9.60
2019-05-13T17:13:28.794Z,9.60
2019-05-13T17:16:01.569Z,9.60
2019-05-13T17:18:33.385Z,9.60
2019-05-13T17:21:04.941Z,9.60
2019-05-13T17:23:36.409Z,9.50
2019-05-13T17:26:07.909Z,9.50
2019-05-13T17:28:41.714Z,9.60
2019-05-13T17:31:13.529Z,9.50
2019-05-13T17:33:44.961Z,9.40
2019-05-13T17:36:16.578Z,9.30
2019-05-13T17:38:48.041Z,9.30
2019-05-13T17:41:21.253Z,9.30
2019-05-13T17:43:52.599Z,9.30
2019-05-13T17:46:24.164Z,9.40
2019-05-13T17:48:55.591Z,9.40
2019-05-13T17:51:27.035Z,9.40
2019-05-13T17:53:58.549Z,9.50
2019-05-13T17:56:32.134Z,9.50
2019-05-13T17:59:03.296Z,9.50
2019-05-13T18:01:34.728Z,9.40
2019-05-13T18:04:06.349Z,9.30
2019-05-13T18:06:37.887Z,9.30
2019-05-13T18:09:11.722Z,9.30
2019-05-13T18:11:42.877Z,9.30
2019-05-13T18:14:14.361Z,9.30
2019-05-13T18:16:45.790Z,9.40
2019-05-13T18:19:17.193Z,9.40
2019-05-13T18:21:51.671Z,9.40
2019-05-13T18:24:23.334Z,9.40
2019-05-13T18:26:54.728Z,9.40
2019-05-13T18:29:26.093Z,9.40
2019-05-13T18:31:57.734Z,9.40
2019-05-13T18:34:29.114Z,9.40
2019-05-13T18:37:02.505Z,9.40
2019-05-13T18:39:33.592Z,9.40
2019-05-13T18:42:05.136Z,9.40
2019-05-13T18:44:37.047Z,9.40
2019-05-13T18:47:11.696Z,9.50
2019-05-13T18:49:42.876Z,9.40
2019-05-13T18:52:14.329Z,9.40
2019-05-13T18:54:45.817Z,9.50
2019-05-13T18:57:17.278Z,9.50
2019-05-13T18:59:48.717Z,9.50
2019-05-13T19:02:21.441Z,9.50
2019-05-13T19:04:53.121Z,9.50
2019-05-13T19:07:24.813Z,9.50
2019-05-13T19:09:56.394Z,9.50
2019-05-13T19:12:27.793Z,9.50
2019-05-13T19:14:59.162Z,9.60
2019-05-13T19:17:32.247Z,9.50
2019-05-13T19:20:04.341Z,9.60
2019-05-13T19:22:35.887Z,9.60
2019-05-13T19:25:07.835Z,9.70
2019-05-13T19:27:41.330Z,9.70
2019-05-13T19:30:12.626Z,9.70
2019-05-13T19:32:44.285Z,9.70
2019-05-13T19:35:15.894Z,9.70
2019-05-13T19:37:47.367Z,9.70
2019-05-13T19:40:18.905Z,9.60
2019-05-13T19:42:51.068Z,9.60
2019-05-13T19:45:22.835Z,9.60
2019-05-13T19:47:54.422Z,9.60
2019-05-13T19:50:26.199Z,9.60
2019-05-13T19:52:57.651Z,9.60
2019-05-13T19:55:29.224Z,9.70
2019-05-13T19:58:01.858Z,9.70
2019-05-13T20:00:33.499Z,9.70
2019-05-13T20:03:05.457Z,9.60
2019-05-13T20:05:37.158Z,9.60
2019-05-13T20:08:08.592Z,9.60
2019-05-13T20:10:42.293Z,9.60
2019-05-13T20:13:13.226Z,9.70
2019-05-13T20:15:44.586Z,9.70
2019-05-13T20:18:16.108Z,9.60
2019-05-13T20:20:47.569Z,9.60
2019-05-13T20:23:21.277Z,9.60
2019-05-13T20:25:52.978Z,9.60
2019-05-13T20:28:24.411Z,9.60
2019-05-13T20:30:55.793Z,9.60
2019-05-13T20:33:27.224Z,9.60
2019-05-13T20:35:58.607Z,9.60
2019-05-13T20:38:31.623Z,9.60
2019-05-13T20:41:03.228Z,9.60
2019-05-13T20:43:34.591Z,9.60
2019-05-13T20:46:06.048Z,9.60
2019-05-13T20:48:37.512Z,9.60
2019-05-13T20:51:11.183Z,9.60
2019-05-13T20:53:42.022Z,9.50
2019-05-13T20:56:13.398Z,9.50
2019-05-13T20:58:44.840Z,9.50
2019-05-13T21:01:16.305Z,9.50
2019-05-13T21:03:48.121Z,9.50
2019-05-13T21:06:19.520Z,9.50
2019-05-13T21:08:52.171Z,9.50
2019-05-13T21:11:23.919Z,9.40
2019-05-13T21:13:56.516Z,9.40
2019-05-13T21:16:27.991Z,9.40
2019-05-13T21:19:02.291Z,9.30
2019-05-13T21:21:33.693Z,9.20
2019-05-13T21:24:05.345Z,9.10
2019-05-13T21:26:36.731Z,9.10
2019-05-13T21:29:08.168Z,9.10
2019-05-13T21:31:41.428Z,9.00
2019-05-13T21:34:12.805Z,9.00
2019-05-13T21:36:44.345Z,8.90
2019-05-13T21:39:15.738Z,8.90
2019-05-13T21:41:47.233Z,8.90
2019-05-13T21:44:18.707Z,8.90
2019-05-13T21:46:51.566Z,8.90
2019-05-13T21:49:24.205Z,8.80
2019-05-13T21:51:56.937Z,8.70
2019-05-13T21:54:28.867Z,8.70
2019-05-13T21:57:02.263Z,8.80
2019-05-13T21:59:33.612Z,8.70
2019-05-13T22:02:05.628Z,8.70
2019-05-13T22:04:38.215Z,8.70
2019-05-13T22:07:11.935Z,8.60
2019-05-13T22:09:42.674Z,8.50
2019-05-13T22:12:14.123Z,8.50
2019-05-13T22:14:45.563Z,8.50
2019-05-13T22:17:17.290Z,8.50
2019-05-13T22:19:48.730Z,8.50
2019-05-13T22:22:21.921Z,8.50
2019-05-13T22:24:53.093Z,8.50
2019-05-13T22:27:24.687Z,8.50
2019-05-13T22:29:56.092Z,8.50
2019-05-13T22:32:27.433Z,8.40
2019-05-13T22:35:01.827Z,8.40
2019-05-13T22:37:33.903Z,8.40
2019-05-13T22:40:05.693Z,8.40
2019-05-13T22:42:37.074Z,8.30
2019-05-13T22:45:08.901Z,8.30
2019-05-13T22:47:41.725Z,8.30
2019-05-13T22:50:14.044Z,8.30
2019-05-13T22:52:45.617Z,8.30
2019-05-13T22:55:17.168Z,8.30
2019-05-13T22:57:50.714Z,8.30
2019-05-13T23:00:22.470Z,8.30
2019-05-13T23:02:55.062Z,8.30
2019-05-13T23:05:26.582Z,8.30
2019-05-13T23:07:57.904Z,8.30
2019-05-13T23:10:31.661Z,8.30
2019-05-13T23:13:02.312Z,8.30
2019-05-13T23:15:33.737Z,8.40
2019-05-13T23:18:05.129Z,8.30
2019-05-13T23:20:36.539Z,8.30
2019-05-13T23:23:08.372Z,8.30
2019-05-13T23:25:40.918Z,8.20
2019-05-13T23:28:13.110Z,8.30
2019-05-13T23:30:45.515Z,8.30
2019-05-13T23:33:16.849Z,8.30
2019-05-13T23:35:48.372Z,8.30
2019-05-13T23:38:21.411Z,8.20
2019-05-13T23:40:53.377Z,8.20
2019-05-13T23:43:25.256Z,8.20
2019-05-13T23:45:56.860Z,8.20
2019-05-13T23:48:28.623Z,8.20
2019-05-13T23:51:01.351Z,8.10
2019-05-13T23:53:33.464Z,8.10
2019-05-13T23:56:05.363Z,8.10
2019-05-13T23:58:36.832Z,8.20
